createdAt,value
2022-09-24T00:00:31.500Z,100140.84
2022-09-24T00:02:57.887Z,100141.69
2022-09-24T00:05:24.295Z,100137.19
2022-09-24T00:07:50.624Z,100141.56
2022-09-24T00:10:17.119Z,100141.56
2022-09-24T00:12:44.756Z,100135.34
2022-09-24T00:15:11.180Z,100138.03
2022-09-24T00:17:37.490Z,100145.09
2022-09-24T00:20:04.100Z,100146.06
2022-09-24T00:22:31.922Z,100133.66
2022-09-24T00:24:58.313Z,100138.03
2022-09-24T00:27:24.635Z,100135.50
2022-09-24T00:29:52.262Z,100136.34
2022-09-24T00:32:18.593Z,100132.69
2022-09-24T00:34:44.947Z,100141.69
2022-09-24T00:37:11.323Z,100137.34
2022-09-24T00:39:37.663Z,100135.63
2022-09-24T00:42:04.312Z,100138.28
2022-09-24T00:44:45.478Z,100142.81
2022-09-24T00:47:13.756Z,100141.84
2022-09-24T00:49:40.444Z,100142.81
2022-09-24T00:52:06.998Z,100135.91
2022-09-24T00:54:33.598Z,100143.06
2022-09-24T00:57:00.721Z,100143.06
2022-09-24T00:59:28.043Z,100142.22
2022-09-24T01:01:54.557Z,100143.94
2022-09-24T01:04:22.196Z,100144.78
2022-09-24T01:06:48.607Z,100143.94
2022-09-24T01:09:15.408Z,100148.56
2022-09-24T01:11:45.810Z,100140.53
2022-09-24T01:14:27.556Z,100141.38
2022-09-24T01:16:55.312Z,100142.34
2022-09-24T01:19:36.304Z,100144.88
2022-09-24T01:22:03.882Z,100138.56
2022-09-24T01:24:42.570Z,100138.56
2022-09-24T01:27:14.179Z,100141.13
2022-09-24T01:29:50.131Z,100134.19
2022-09-24T01:32:19.334Z,100134.06
2022-09-24T01:34:47.941Z,100130.53
2022-09-24T01:37:16.254Z,100126.16
2022-09-24T01:39:44.404Z,100121.63
2022-09-24T01:42:10.991Z,100119.84
2022-09-24T01:44:37.951Z,100122.53
2022-09-24T01:47:06.172Z,100115.44
2022-09-24T01:49:32.655Z,100120.78
2022-09-24T01:52:00.811Z,100111.06
2022-09-24T01:54:29.220Z,100110.09
2022-09-24T01:56:57.177Z,100096.84
2022-09-24T01:59:26.868Z,100096.84
2022-09-24T02:01:55.219Z,100096.84
2022-09-24T02:04:24.849Z,100096.84
2022-09-24T02:06:53.809Z,100096.84
2022-09-24T02:09:28.801Z,100087.84
2022-09-24T02:11:56.337Z,100088.69
2022-09-24T02:14:24.009Z,100086.00
2022-09-24T02:16:50.486Z,100085.16
2022-09-24T02:19:18.810Z,100084.16
2022-09-24T02:21:46.731Z,100092.19
2022-09-24T02:24:16.591Z,100083.31
2022-09-24T02:26:43.043Z,100085.88
2022-09-24T02:29:09.584Z,100085.03
2022-09-24T02:31:37.955Z,100083.31
2022-09-24T02:34:06.778Z,100075.28
2022-09-24T02:36:33.378Z,100082.47
2022-09-24T02:39:01.747Z,100076.13
2022-09-24T02:41:28.889Z,100077.97
2022-09-24T02:43:55.373Z,100075.44
2022-09-24T02:46:21.833Z,100066.41
2022-09-24T02:48:48.310Z,100068.25
2022-09-24T02:51:14.727Z,100069.94
2022-09-24T02:53:41.081Z,100073.59
2022-09-24T02:56:08.788Z,100077.97
2022-09-24T02:58:35.159Z,100077.13
2022-09-24T03:01:01.516Z,100090.50
2022-09-24T03:03:27.932Z,100088.81
2022-09-24T03:05:54.296Z,100092.50
2022-09-24T03:08:20.697Z,100091.50
2022-09-24T03:10:47.029Z,100087.97
2022-09-24T03:13:14.721Z,100094.28
2022-09-24T03:15:41.120Z,100094.44
2022-09-24T03:18:07.499Z,100098.94
2022-09-24T03:20:33.932Z,100094.56
2022-09-24T03:23:00.233Z,100093.69
2022-09-24T03:25:26.578Z,100092.84
2022-09-24T03:27:53.068Z,100095.41
2022-09-24T03:30:20.715Z,100100.63
2022-09-24T03:32:47.871Z,100099.94
2022-09-24T03:35:14.366Z,100099.06
2022-09-24T03:37:40.934Z,100102.59
2022-09-24T03:40:07.627Z,100099.94
2022-09-24T03:42:33.977Z,100091.75
2022-09-24T03:45:00.546Z,100089.91
2022-09-24T03:47:28.156Z,100087.25
2022-09-24T03:49:54.488Z,100093.59
2022-09-24T03:52:20.922Z,100093.44
2022-09-24T03:54:47.246Z,100098.94
2022-09-24T03:57:13.634Z,100095.28
2022-09-24T03:59:39.988Z,100102.47
2022-09-24T04:02:06.375Z,100098.09
2022-09-24T04:04:34.103Z,100093.69
2022-09-24T04:07:00.631Z,100102.47
2022-09-24T04:09:27.022Z,100103.31
2022-09-24T04:11:53.395Z,100096.38
2022-09-24T04:14:19.745Z,100108.66
2022-09-24T04:16:46.542Z,100099.94
2022-09-24T04:19:13.197Z,100105.00
2022-09-24T04:21:40.825Z,100109.50
2022-09-24T04:24:07.268Z,100107.81
2022-09-24T04:26:33.635Z,100107.66
2022-09-24T04:28:59.981Z,100103.31
2022-09-24T04:31:26.665Z,100106.81
2022-09-24T04:33:53.091Z,100108.81
2022-09-24T04:36:19.669Z,100111.34
2022-09-24T04:38:47.384Z,100109.66
2022-09-24T04:41:14.007Z,100117.66
2022-09-24T04:43:40.333Z,100110.63
2022-09-24T04:46:07.144Z,100108.91
2022-09-24T04:48:33.531Z,100106.22
2022-09-24T04:50:59.861Z,100104.28
2022-09-24T04:53:26.177Z,100105.28
2022-09-24T04:55:53.906Z,100110.63
2022-09-24T04:58:20.251Z,100108.91
2022-09-24T05:00:46.585Z,100103.56
2022-09-24T05:03:12.958Z,100108.91
2022-09-24T05:05:39.284Z,100106.22
2022-09-24T05:08:05.642Z,100104.41
2022-09-24T05:10:32.125Z,100107.09
2022-09-24T05:12:59.773Z,100112.31
2022-09-24T05:15:26.388Z,100110.50
2022-09-24T05:17:52.887Z,100104.28
2022-09-24T05:20:19.211Z,100110.50
2022-09-24T05:22:46.582Z,100105.28
2022-09-24T05:25:13.914Z,100115.84
2022-09-24T05:27:43.821Z,100119.50
2022-09-24T05:30:12.125Z,100119.50
2022-09-24T05:32:38.623Z,100123.88
2022-09-24T05:35:05.223Z,100121.34
2022-09-24T05:37:31.575Z,100120.47
2022-09-24T05:39:57.882Z,100123.88
2022-09-24T05:42:24.385Z,100122.88
2022-09-24T05:44:52.370Z,100118.66
2022-09-24T05:47:20.208Z,100121.34
2022-09-24T05:49:46.515Z,100118.66
2022-09-24T05:52:12.818Z,100128.50
2022-09-24T05:54:39.151Z,100133.00
2022-09-24T05:57:05.481Z,100126.69
2022-09-24T05:59:31.896Z,100132.88
2022-09-24T06:01:58.269Z,100127.66
2022-09-24T06:04:25.954Z,100136.53
2022-09-24T06:06:52.287Z,100137.50
2022-09-24T06:09:18.651Z,100142.75
2022-09-24T06:11:44.994Z,100143.69
2022-09-24T06:14:11.441Z,100151.63
2022-09-24T06:16:37.799Z,100148.09
2022-09-24T06:19:04.195Z,100157.09
2022-09-24T06:21:31.865Z,100146.38
2022-09-24T06:23:58.196Z,100155.25
2022-09-24T06:26:24.532Z,100152.56
2022-09-24T06:28:50.889Z,100160.75
2022-09-24T06:31:17.397Z,100167.78
2022-09-24T06:33:43.771Z,100174.00
2022-09-24T06:36:10.413Z,100174.00
2022-09-24T06:38:38.107Z,100176.81
2022-09-24T06:41:05.186Z,100182.00
2022-09-24T06:43:31.951Z,100178.50
2022-09-24T06:45:58.891Z,100183.84
2022-09-24T06:48:25.592Z,100183.84
2022-09-24T06:50:52.289Z,100182.00
2022-09-24T06:53:18.636Z,100185.69
2022-09-24T06:55:47.047Z,100193.72
2022-09-24T06:58:14.584Z,100190.03
2022-09-24T07:00:41.614Z,100191.03
2022-09-24T07:03:13.080Z,100192.88
2022-09-24T07:05:43.418Z,100193.72
2022-09-24T07:08:10.419Z,100194.56
2022-09-24T07:10:37.850Z,100191.03
2022-09-24T07:13:05.504Z,100199.91
2022-09-24T07:15:31.873Z,100199.91
2022-09-24T07:17:58.305Z,100206.97
2022-09-24T07:20:24.780Z,100202.59
2022-09-24T07:22:51.198Z,100208.78
2022-09-24T07:25:17.618Z,100203.56
2022-09-24T07:27:43.960Z,100213.28
2022-09-24T07:30:11.938Z,100211.59
2022-09-24T07:32:38.375Z,100213.28
2022-09-24T07:35:05.169Z,100215.97
2022-09-24T07:37:31.519Z,100217.69
2022-09-24T07:39:57.994Z,100207.09
2022-09-24T07:42:24.460Z,100207.09
2022-09-24T07:44:50.893Z,100211.59
2022-09-24T07:47:18.633Z,100215.97
2022-09-24T07:49:45.069Z,100215.13
2022-09-24T07:52:11.540Z,100222.31
2022-09-24T07:54:37.919Z,100222.31
2022-09-24T07:57:09.509Z,100222.31
2022-09-24T07:59:35.843Z,100219.63
2022-09-24T08:02:02.271Z,100224.97
2022-09-24T08:04:30.004Z,100230.31
2022-09-24T08:06:56.468Z,100231.31
2022-09-24T08:09:22.836Z,100225.22
2022-09-24T08:11:49.226Z,100222.44
2022-09-24T08:14:15.707Z,100233.25
2022-09-24T08:16:42.058Z,100234.00
2022-09-24T08:19:09.202Z,100238.50
2022-09-24T08:21:37.945Z,100240.31
2022-09-24T08:24:04.638Z,100244.56
2022-09-24T08:26:30.965Z,100241.03
2022-09-24T08:28:57.298Z,100240.19
2022-09-24T08:31:23.778Z,100254.16
2022-09-24T08:33:50.149Z,100260.50
2022-09-24T08:36:16.849Z,100262.31
2022-09-24T08:38:44.811Z,100266.56
2022-09-24T08:41:21.835Z,100261.34
2022-09-24T08:43:55.282Z,100265.72
2022-09-24T08:46:24.320Z,100261.47
2022-09-24T08:48:52.679Z,100267.81
2022-09-24T08:51:20.789Z,100273.88
2022-09-24T08:53:52.939Z,100274.00
2022-09-24T08:56:20.780Z,100288.97
2022-09-24T08:58:50.182Z,100276.56
2022-09-24T09:01:20.079Z,100281.19
2022-09-24T09:03:48.295Z,100287.28
2022-09-24T09:06:25.668Z,100283.59
2022-09-24T09:09:07.257Z,100290.66
2022-09-24T09:11:34.599Z,100281.03
2022-09-24T09:14:03.365Z,100281.03
2022-09-24T09:16:34.291Z,100279.94
2022-09-24T09:19:04.322Z,100287.88
2022-09-24T09:21:34.690Z,100278.97
2022-09-24T09:24:03.023Z,100282.53
2022-09-24T09:26:29.379Z,100287.88
2022-09-24T09:28:58.450Z,100285.31
2022-09-24T09:31:31.974Z,100281.78
2022-09-24T09:34:11.020Z,100285.31
2022-09-24T09:36:43.428Z,100281.91
2022-09-24T09:39:20.917Z,100286.41
2022-09-24T09:41:50.407Z,100286.16
2022-09-24T09:44:20.199Z,100286.28
2022-09-24T09:46:51.126Z,100290.66
2022-09-24T09:49:17.781Z,100289.06
2022-09-24T09:51:47.183Z,100293.47
2022-09-24T09:54:14.819Z,100292.63
2022-09-24T09:56:42.802Z,100289.06
2022-09-24T09:59:16.827Z,100288.97
2022-09-24T10:01:45.708Z,100295.16
2022-09-24T10:04:23.923Z,100293.34
2022-09-24T10:06:50.283Z,100288.97
2022-09-24T10:09:18.615Z,100304.78
2022-09-24T10:11:45.237Z,100306.47
2022-09-24T10:14:12.199Z,100300.38
2022-09-24T10:16:39.898Z,100304.78
2022-09-24T10:19:15.390Z,100302.09
2022-09-24T10:21:41.842Z,100304.88
2022-09-24T10:24:13.927Z,100303.78
2022-09-24T10:26:45.347Z,100304.78
2022-09-24T10:29:13.883Z,100309.88
2022-09-24T10:31:41.156Z,100307.44
2022-09-24T10:34:20.169Z,100302.09
2022-09-24T10:36:50.660Z,100301.13
2022-09-24T10:39:17.145Z,100300.28
2022-09-24T10:41:47.683Z,100299.28
2022-09-24T10:44:14.613Z,100300.28
2022-09-24T10:46:48.951Z,100302.09
2022-09-24T10:49:25.059Z,100301.97
2022-09-24T10:51:55.497Z,100301.13
2022-09-24T10:54:33.280Z,100300.13
2022-09-24T10:57:06.282Z,100309.88
2022-09-24T10:59:39.708Z,100316.94
2022-09-24T11:02:17.664Z,100305.63
2022-09-24T11:04:49.628Z,100308.31
2022-09-24T11:07:26.118Z,100307.31
2022-09-24T11:09:58.038Z,100306.31
2022-09-24T11:12:32.354Z,100304.53
2022-09-24T11:15:07.627Z,100308.16
2022-09-24T11:17:37.001Z,100313.66
2022-09-24T11:20:14.110Z,100325.06
2022-09-24T11:22:48.279Z,100321.78
2022-09-24T11:25:21.187Z,100314.75
2022-09-24T11:27:56.170Z,100318.16
2022-09-24T11:30:23.455Z,100313.75
2022-09-24T11:32:56.575Z,100320.84
2022-09-24T11:35:29.935Z,100321.53
2022-09-24T11:37:59.117Z,100314.50
2022-09-24T11:40:29.434Z,100308.31
2022-09-24T11:43:04.617Z,100314.63
2022-09-24T11:45:40.895Z,100312.81
2022-09-24T11:48:16.953Z,100313.06
2022-09-24T11:50:51.536Z,100317.41
2022-09-24T11:53:25.625Z,100312.91
2022-09-24T11:55:54.857Z,100315.47
2022-09-24T11:58:27.010Z,100314.34
2022-09-24T12:00:54.311Z,100313.66
2022-09-24T12:03:26.188Z,100309.16
2022-09-24T12:05:57.104Z,100310.97
2022-09-24T12:08:26.306Z,100306.59
2022-09-24T12:10:56.054Z,100301.97
2022-09-24T12:13:26.983Z,100303.66
2022-09-24T12:15:55.619Z,100308.16
2022-09-24T12:18:24.730Z,100301.13
2022-09-24T12:20:52.846Z,100303.78
2022-09-24T12:23:23.845Z,100302.81
2022-09-24T12:25:50.635Z,100302.81
2022-09-24T12:28:18.456Z,100298.19
2022-09-24T12:30:47.517Z,100296.38
2022-09-24T12:33:17.331Z,100303.53
2022-09-24T12:35:50.983Z,100296.22
2022-09-24T12:38:18.764Z,100301.56
2022-09-24T12:40:55.944Z,100293.28
2022-09-24T12:43:25.777Z,100292.84
2022-09-24T12:45:56.609Z,100291.84
2022-09-24T12:48:24.713Z,100294.41
2022-09-24T12:50:55.656Z,100287.34
2022-09-24T12:53:23.105Z,100288.19
2022-09-24T12:55:49.784Z,100284.56
2022-09-24T12:58:26.885Z,100289.06
2022-09-24T13:01:05.116Z,100289.91
2022-09-24T13:03:34.021Z,100293.53
2022-09-24T13:06:00.811Z,100284.56
2022-09-24T13:08:34.779Z,100289.91
2022-09-24T13:11:01.986Z,100287.09
2022-09-24T13:13:29.340Z,100294.13
2022-09-24T13:16:00.631Z,100302.06
2022-09-24T13:18:27.262Z,100304.75
2022-09-24T13:20:59.527Z,100299.38
2022-09-24T13:23:31.308Z,100299.50
2022-09-24T13:25:58.553Z,100300.47
2022-09-24T13:28:29.232Z,100293.53
2022-09-24T13:31:09.295Z,100304.16
2022-09-24T13:33:40.326Z,100297.81
2022-09-24T13:36:13.470Z,100296.13
2022-09-24T13:38:44.158Z,100299.50
2022-09-24T13:41:16.593Z,100294.28
2022-09-24T13:43:45.372Z,100293.44
2022-09-24T13:46:14.716Z,100295.03
2022-09-24T13:48:42.658Z,100298.66
2022-09-24T13:51:11.856Z,100298.53
2022-09-24T13:53:42.034Z,100301.22
2022-09-24T13:56:12.869Z,100294.88
2022-09-24T13:58:39.509Z,100294.75
2022-09-24T14:01:13.079Z,100300.38
2022-09-24T14:03:39.925Z,100301.31
2022-09-24T14:06:10.188Z,100291.34
2022-09-24T14:08:37.103Z,100303.91
2022-09-24T14:11:05.409Z,100295.88
2022-09-24T14:13:31.753Z,100290.38
2022-09-24T14:15:58.938Z,100294.88
2022-09-24T14:18:26.302Z,100289.78
2022-09-24T14:20:56.004Z,100297.69
2022-09-24T14:23:24.865Z,100295.28
2022-09-24T14:25:51.908Z,100294.28
2022-09-24T14:28:20.071Z,100292.59
2022-09-24T14:30:49.103Z,100296.22
2022-09-24T14:33:17.563Z,100290.16
2022-09-24T14:35:46.115Z,100295.38
2022-09-24T14:38:15.890Z,100301.56
2022-09-24T14:40:44.266Z,100292.59
2022-09-24T14:43:15.379Z,100289.91
2022-09-24T14:45:43.221Z,100290.50
2022-09-24T14:48:17.976Z,100285.41
2022-09-24T14:50:44.383Z,100286.25
2022-09-24T14:53:12.305Z,100286.09
2022-09-24T14:55:39.513Z,100279.91
2022-09-24T14:58:05.995Z,100289.78
2022-09-24T15:00:35.639Z,100293.28
2022-09-24T15:03:05.961Z,100293.44
2022-09-24T15:05:32.503Z,100296.22
2022-09-24T15:08:10.173Z,100288.19
2022-09-24T15:10:36.530Z,100293.44
2022-09-24T15:13:12.386Z,100284.31
2022-09-24T15:15:38.792Z,100287.94
2022-09-24T15:18:10.189Z,100287.94
2022-09-24T15:20:36.537Z,100276.53
2022-09-24T15:23:03.180Z,100275.53
2022-09-24T15:25:29.540Z,100289.66
2022-09-24T15:27:55.958Z,100281.63
2022-09-24T15:30:22.336Z,100279.91
2022-09-24T15:32:48.811Z,100275.69
2022-09-24T15:35:16.852Z,100278.38
2022-09-24T15:37:43.246Z,100287.00
2022-09-24T15:40:15.971Z,100285.28
2022-09-24T15:42:42.374Z,100295.97
2022-09-24T15:45:10.012Z,100291.75
2022-09-24T15:47:36.314Z,100292.59
2022-09-24T15:50:02.677Z,100292.34
2022-09-24T15:52:31.841Z,100297.56
2022-09-24T15:55:00.566Z,100296.72
2022-09-24T15:57:27.021Z,100303.06
2022-09-24T15:59:53.433Z,100299.63
2022-09-24T16:02:21.602Z,100290.88
2022-09-24T16:04:48.052Z,100305.97
2022-09-24T16:07:14.367Z,100295.38
2022-09-24T16:09:42.030Z,100309.59
2022-09-24T16:12:09.669Z,100299.88
2022-09-24T16:14:36.004Z,100305.38
2022-09-24T16:17:02.337Z,100306.22
2022-09-24T16:19:28.708Z,100300.88
2022-09-24T16:21:55.036Z,100311.69
2022-09-24T16:24:21.390Z,100312.56
2022-09-24T16:26:49.113Z,100313.25
2022-09-24T16:29:15.453Z,100312.41
2022-09-24T16:31:42.002Z,100306.94
2022-09-24T16:34:08.376Z,100305.38
2022-09-24T16:36:34.696Z,100307.22
2022-09-24T16:39:01.052Z,100307.91
2022-09-24T16:41:27.390Z,100308.91
2022-09-24T16:43:56.233Z,100306.22
2022-09-24T16:46:22.782Z,100314.34
2022-09-24T16:48:49.209Z,100316.19
2022-09-24T16:51:15.546Z,100315.34
2022-09-24T16:53:46.302Z,100319.84
2022-09-24T16:56:16.119Z,100323.28
2022-09-24T16:58:43.418Z,100324.22
2022-09-24T17:01:13.013Z,100327.75
2022-09-24T17:03:39.513Z,100326.91
2022-09-24T17:06:06.567Z,100322.53
2022-09-24T17:08:33.601Z,100331.31
2022-09-24T17:11:00.743Z,100327.75
2022-09-24T17:13:27.109Z,100327.88
2022-09-24T17:15:53.456Z,100321.53
2022-09-24T17:18:21.145Z,100328.72
2022-09-24T17:20:47.488Z,100338.59
2022-09-24T17:23:13.833Z,100351.00
2022-09-24T17:25:40.145Z,100351.84
2022-09-24T17:28:06.478Z,100353.81
2022-09-24T17:30:32.912Z,100353.81
2022-09-24T17:32:59.221Z,100359.16
2022-09-24T17:35:27.052Z,100361.00
2022-09-24T17:37:53.385Z,100361.00
2022-09-24T17:40:23.832Z,100365.34
2022-09-24T17:42:50.834Z,100369.88
2022-09-24T17:45:17.158Z,100369.88
2022-09-24T17:47:43.498Z,100376.06
2022-09-24T17:50:09.859Z,100373.38
2022-09-24T17:52:37.483Z,100386.78
2022-09-24T17:55:04.062Z,100384.09
2022-09-24T17:57:30.393Z,100388.47
2022-09-24T17:59:56.821Z,100387.63
2022-09-24T18:02:23.324Z,100385.91
2022-09-24T18:04:49.729Z,100397.47
2022-09-24T18:07:16.160Z,100392.13
2022-09-24T18:09:43.833Z,100397.47
2022-09-24T18:12:14.839Z,100401.13
2022-09-24T18:14:43.346Z,100407.34
2022-09-24T18:17:09.689Z,100414.53
2022-09-24T18:19:36.058Z,100415.38
2022-09-24T18:22:02.370Z,100411.84
2022-09-24T18:24:28.699Z,100416.34
2022-09-24T18:26:56.353Z,100411.09
2022-09-24T18:29:22.673Z,100421.81
2022-09-24T18:31:49.018Z,100421.09
2022-09-24T18:34:15.788Z,100423.63
2022-09-24T18:36:42.999Z,100422.78
2022-09-24T18:39:10.869Z,100419.13
2022-09-24T18:41:37.383Z,100423.50
2022-09-24T18:44:05.371Z,100423.63
2022-09-24T18:46:32.653Z,100426.44
2022-09-24T18:48:59.825Z,100423.63
2022-09-24T18:51:27.271Z,100433.50
2022-09-24T18:53:54.267Z,100427.16
2022-09-24T18:56:21.110Z,100434.47
2022-09-24T18:58:47.765Z,100437.16
2022-09-24T19:01:15.758Z,100437.16
2022-09-24T19:03:42.314Z,100436.28
2022-09-24T19:06:09.245Z,100431.81
2022-09-24T19:08:35.676Z,100438.00
2022-09-24T19:11:03.810Z,100436.28
2022-09-24T19:13:30.279Z,100434.34
2022-09-24T19:15:56.690Z,100433.50
2022-09-24T19:18:24.408Z,100434.34
2022-09-24T19:20:50.735Z,100436.03
2022-09-24T19:23:17.073Z,100439.69
2022-09-24T19:25:43.659Z,100437.03
2022-09-24T19:28:10.770Z,100439.84
2022-09-24T19:30:37.762Z,100444.19
2022-09-24T19:33:04.122Z,100447.84
2022-09-24T19:35:31.754Z,100448.81
2022-09-24T19:37:58.163Z,100448.81
2022-09-24T19:40:24.610Z,100460.25
2022-09-24T19:42:51.116Z,100462.09
2022-09-24T19:45:17.461Z,100461.34
2022-09-24T19:47:43.812Z,100466.69
2022-09-24T19:50:15.039Z,100465.72
2022-09-24T19:52:44.984Z,100471.22
2022-09-24T19:55:11.335Z,100472.28
2022-09-24T19:57:37.705Z,100472.19
2022-09-24T20:00:04.333Z,100469.50
2022-09-24T20:02:30.829Z,100469.50
2022-09-24T20:04:57.209Z,100468.75
2022-09-24T20:07:23.543Z,100468.66
2022-09-24T20:09:51.284Z,100462.44
2022-09-24T20:12:17.666Z,100457.22
2022-09-24T20:14:44.087Z,100466.84
2022-09-24T20:17:10.616Z,100470.47
2022-09-24T20:19:36.950Z,100473.28
2022-09-24T20:22:03.302Z,100467.06
2022-09-24T20:24:29.643Z,100472.44
2022-09-24T20:26:57.275Z,100471.56
2022-09-24T20:29:24.025Z,100476.78
2022-09-24T20:31:51.765Z,100475.94
2022-09-24T20:34:18.327Z,100475.94
2022-09-24T20:36:44.672Z,100477.78
2022-09-24T20:39:10.982Z,100479.59
2022-09-24T20:41:37.426Z,100477.88
2022-09-24T20:44:05.059Z,100473.41
2022-09-24T20:46:31.527Z,100483.22
2022-09-24T20:48:59.176Z,100477.03
2022-09-24T20:51:27.069Z,100484.22
2022-09-24T20:53:53.474Z,100475.34
2022-09-24T20:56:20.003Z,100478.00
2022-09-24T20:58:48.545Z,100472.66
2022-09-24T21:01:16.501Z,100477.16
2022-09-24T21:03:44.837Z,100479.84
2022-09-24T21:06:12.595Z,100468.16
2022-09-24T21:08:40.278Z,100476.19
2022-09-24T21:11:07.624Z,100471.81
2022-09-24T21:13:34.373Z,100471.69
2022-09-24T21:16:01.464Z,100476.09
2022-09-24T21:18:39.435Z,100472.53
2022-09-24T21:21:07.387Z,100473.41
2022-09-24T21:23:33.789Z,100468.91
2022-09-24T21:26:07.580Z,100469.00
2022-09-24T21:28:33.940Z,100475.19
2022-09-24T21:31:00.336Z,100469.84
2022-09-24T21:33:26.685Z,100476.94
2022-09-24T21:35:54.353Z,100474.25
2022-09-24T21:38:20.679Z,100483.13
2022-09-24T21:40:51.159Z,100490.31
2022-09-24T21:43:17.538Z,100488.59
2022-09-24T21:45:44.077Z,100494.81
2022-09-24T21:48:10.421Z,100495.75
2022-09-24T21:50:40.191Z,100490.41
2022-09-24T21:53:08.060Z,100493.09
2022-09-24T21:55:34.419Z,100481.53
2022-09-24T21:58:00.820Z,100483.13
2022-09-24T22:00:27.308Z,100491.16
2022-09-24T22:02:53.637Z,100484.97
2022-09-24T22:05:19.980Z,100477.88
2022-09-24T22:07:46.314Z,100475.94
2022-09-24T22:10:13.952Z,100478.75
2022-09-24T22:12:40.321Z,100482.28
2022-09-24T22:15:06.995Z,100487.72
2022-09-24T22:17:33.468Z,100479.59
2022-09-24T22:19:59.879Z,100484.13
2022-09-24T22:22:26.303Z,100481.44
2022-09-24T22:24:52.677Z,100486.88
2022-09-24T22:27:20.305Z,100478.00
2022-09-24T22:29:46.635Z,100480.69
2022-09-24T22:32:12.968Z,100485.19
2022-09-24T22:34:39.307Z,100480.69
2022-09-24T22:37:05.710Z,100477.16
2022-09-24T22:39:33.195Z,100480.69
2022-09-24T22:41:59.501Z,100473.63
2022-09-24T22:44:27.139Z,100479.84
2022-09-24T22:46:53.516Z,100479.84
2022-09-24T22:49:19.928Z,100469.13
2022-09-24T22:51:46.266Z,100472.75
2022-09-24T22:54:12.813Z,100472.66
2022-09-24T22:56:39.270Z,100469.97
2022-09-24T22:59:05.712Z,100477.03
2022-09-24T23:01:34.476Z,100469.97
2022-09-24T23:04:01.005Z,100483.38
2022-09-24T23:06:27.836Z,100465.47
2022-09-24T23:08:54.862Z,100469.00
2022-09-24T23:11:22.027Z,100462.94
2022-09-24T23:13:51.249Z,100469.97
2022-09-24T23:16:18.895Z,100468.06
2022-09-24T23:18:47.856Z,100476.19
2022-09-24T23:21:15.474Z,100476.19
2022-09-24T23:23:42.156Z,100473.50
2022-09-24T23:26:12.014Z,100480.69
2022-09-24T23:28:42.939Z,100480.69
2022-09-24T23:31:11.390Z,100477.16
2022-09-24T23:33:38.863Z,100466.47
2022-09-24T23:36:07.584Z,100462.06
2022-09-24T23:38:34.189Z,100469.13
2022-09-24T23:41:00.610Z,100469.97
2022-09-24T23:43:27.446Z,100462.81
2022-09-24T23:45:54.056Z,100453.94
2022-09-24T23:48:20.651Z,100459.28
2022-09-24T23:50:47.225Z,100468.28
2022-09-24T23:53:15.921Z,100464.63
2022-09-24T23:55:44.979Z,100462.06
2022-09-24T23:58:11.777Z,100457.69
